Time;durP1;ratioP1;P1;durP2;ratioP2;P2;SDS_P1;SDS_P2;PMS_P1;PMS_P2;Temp;Humidity;BMP_temperature;BMP_pressure;BME280_temperature;BME280_humidity;BME280_pressure;Samples;Min_cycle;Max_cycle;Signal;HPM_P1;HPM_P2
2022/02/06 00:00:02;;;;;;;9.07;4.72;;;0.20;99.90;;;;;;4929859;29;20051;-81
2022/02/06 00:02:32;;;;;;;7.97;4.50;;;0.10;99.90;;;;;;4926184;29;20107;-83
2022/02/06 00:04:58;;;;;;;6.40;4.13;;;0.20;99.90;;;;;;4902806;29;20059;-83
2022/02/06 00:07:24;;;;;;;7.18;4.22;;;0.20;99.90;;;;;;4902669;29;20402;-83
2022/02/06 00:09:50;;;;;;;9.38;5.03;;;0.30;99.90;;;;;;4883340;29;20033;-83
2022/02/06 00:12:15;;;;;;;7.80;4.60;;;0.30;99.90;;;;;;4884156;29;20067;-83
2022/02/06 00:14:41;;;;;;;8.10;4.28;;;0.40;99.90;;;;;;4900922;29;20040;-83
2022/02/06 00:17:08;;;;;;;7.47;4.35;;;0.40;99.90;;;;;;4883733;29;20063;-83
2022/02/06 00:19:35;;;;;;;9.00;4.53;;;0.40;99.90;;;;;;4883676;29;20029;-82
2022/02/06 00:22:04;;;;;;;7.43;4.30;;;0.40;99.90;;;;;;4883762;29;20504;-82
2022/02/06 00:24:39;;;;;;;6.20;3.88;;;0.40;99.90;;;;;;4883561;29;20512;-83
2022/02/06 00:27:10;;;;;;;6.70;3.60;;;0.40;99.90;;;;;;4883672;29;20119;-82
2022/02/06 00:30:02;;;;;;;5.60;3.67;;;0.40;99.90;;;;;;4883759;29;20029;-83
2022/02/06 00:32:35;;;;;;;7.15;3.83;;;0.40;99.90;;;;;;4883321;29;20053;-82
2022/02/06 00:35:13;;;;;;;7.70;3.55;;;0.40;99.90;;;;;;4905149;29;20131;-82
2022/02/06 00:40:35;;;;;;;5.57;3.25;;;0.40;99.90;;;;;;4919143;29;20168;-83
2022/02/06 00:43:01;;;;;;;5.95;2.90;;;0.40;99.90;;;;;;4901622;29;20106;-83
2022/02/06 00:45:26;;;;;;;5.78;2.92;;;0.50;99.90;;;;;;4902075;29;20032;-82
2022/02/06 00:47:52;;;;;;;5.55;3.22;;;0.50;99.90;;;;;;4918982;29;20451;-82
2022/02/06 00:50:18;;;;;;;6.10;3.33;;;0.60;99.90;;;;;;4911523;29;20024;-82
2022/02/06 00:52:53;;;;;;;6.72;3.85;;;0.60;99.90;;;;;;4888662;29;20029;-80
2022/02/06 00:55:19;;;;;;;6.57;3.72;;;0.60;99.90;;;;;;4893485;29;20032;-81
2022/02/06 00:57:45;;;;;;;5.95;3.55;;;0.70;99.90;;;;;;4903677;29;20493;-80
2022/02/06 01:00:11;;;;;;;6.72;4.10;;;0.70;99.90;;;;;;4924617;29;20043;-80
2022/02/06 01:02:37;;;;;;;10.32;4.72;;;0.80;99.90;;;;;;4907723;29;20032;-81
2022/02/06 01:05:03;;;;;;;6.80;3.80;;;0.80;99.90;;;;;;4904351;29;20134;-82
2022/02/06 01:07:28;;;;;;;5.70;3.90;;;0.90;99.90;;;;;;4901996;29;20052;-82
2022/02/06 01:09:54;;;;;;;6.15;3.95;;;0.90;99.90;;;;;;4919170;29;20383;-83
2022/02/06 01:12:24;;;;;;;7.85;4.45;;;0.90;99.90;;;;;;4918950;29;20107;-83
2022/02/06 01:15:05;;;;;;;7.75;4.15;;;1.00;99.90;;;;;;4918762;29;20055;-83
2022/02/06 01:17:40;;;;;;;7.43;4.07;;;1.00;99.90;;;;;;4918541;29;20506;-83
2022/02/06 01:20:18;;;;;;;6.75;4.22;;;1.10;99.90;;;;;;4901028;29;20028;-83
2022/02/06 01:22:56;;;;;;;7.03;3.88;;;1.10;99.90;;;;;;4918139;29;20028;-83
2022/02/06 01:25:33;;;;;;;7.38;3.90;;;1.10;99.90;;;;;;4901470;29;20036;-84
2022/02/06 01:28:06;;;;;;;6.40;3.83;;;1.10;99.90;;;;;;4901711;29;20036;-84
2022/02/06 01:30:44;;;;;;;7.03;3.60;;;1.10;99.90;;;;;;4918635;29;20032;-83
2022/02/06 01:33:21;;;;;;;5.05;3.10;;;1.10;99.90;;;;;;4918976;29;20056;-83
2022/02/06 01:36:03;;;;;;;6.13;3.50;;;1.10;99.90;;;;;;4918462;29;20032;-82
2022/02/06 01:38:37;;;;;;;8.38;4.10;;;1.10;99.90;;;;;;4901365;29;20054;-82
2022/02/06 01:41:15;;;;;;;6.65;3.58;;;1.00;99.90;;;;;;4900781;29;20056;-82
2022/02/06 01:43:50;;;;;;;6.13;3.15;;;1.00;99.90;;;;;;4901537;29;20070;-82
2022/02/06 01:46:28;;;;;;;7.93;3.60;;;0.90;99.90;;;;;;4901649;29;20600;-81
2022/02/06 02:00:37;;;;;;;7.10;3.90;;;0.80;99.90;;;;;;4875497;29;20099;-82
2022/02/06 02:03:48;;;;;;;6.65;3.60;;;0.70;99.90;;;;;;4815144;29;20034;-81
2022/02/06 02:16:59;;;;;;;6.25;3.65;;;0.70;99.90;;;;;;4899009;29;20140;-82
2022/02/06 02:25:15;;;;;;;6.90;3.70;;;0.70;99.90;;;;;;4898918;29;20025;-82
2022/02/06 02:48:24;;;;;;;7.63;4.10;;;0.70;99.90;;;;;;4883762;29;20047;-83
2022/02/06 02:50:57;;;;;;;8.85;4.70;;;0.60;99.90;;;;;;4866813;29;20028;-83
2022/02/06 02:53:30;;;;;;;8.52;4.22;;;0.60;99.90;;;;;;4880076;29;20029;-82
2022/02/06 03:01:09;;;;;;;9.23;5.30;;;0.70;99.90;;;;;;4910885;29;20037;-82
2022/02/06 03:03:38;;;;;;;8.57;4.93;;;0.70;99.90;;;;;;4895514;29;20455;-82
2022/02/06 03:06:06;;;;;;;8.35;4.75;;;0.70;99.90;;;;;;4905400;29;20024;-82
2022/02/06 03:08:34;;;;;;;8.93;4.55;;;0.70;99.90;;;;;;4914649;29;20080;-82
2022/02/06 03:11:04;;;;;;;9.93;5.03;;;0.70;99.90;;;;;;4904043;29;20084;-82
2022/02/06 03:13:59;;;;;;;9.25;5.00;;;0.80;99.90;;;;;;4903836;29;20028;-81
2022/02/06 03:16:20;;;;;;;11.75;4.57;;;0.70;99.90;;;;;;4920258;29;20044;-82
2022/02/06 03:18:57;;;;;;;11.48;4.47;;;0.80;99.90;;;;;;4904149;29;20031;-82
2022/02/06 03:21:27;;;;;;;8.60;4.20;;;0.80;99.90;;;;;;4903985;29;20122;-81
2022/02/06 03:23:55;;;;;;;7.13;3.88;;;0.80;99.90;;;;;;4904202;29;20466;-81
2022/02/06 03:26:23;;;;;;;9.73;3.70;;;0.80;99.90;;;;;;4920506;29;20028;-80
2022/02/06 03:28:50;;;;;;;8.07;3.80;;;0.80;99.90;;;;;;4903389;29;20059;-80
2022/02/06 03:31:16;;;;;;;7.82;3.88;;;0.80;99.90;;;;;;4903631;29;20039;-81
2022/02/06 03:33:42;;;;;;;8.35;4.22;;;0.80;99.90;;;;;;4920548;29;20042;-80
2022/02/06 03:36:09;;;;;;;10.18;5.05;;;0.90;99.90;;;;;;4921177;29;20052;-79
2022/02/06 03:38:35;;;;;;;9.43;5.88;;;0.90;99.90;;;;;;4916322;29;20029;-79
2022/02/06 03:41:06;;;;;;;16.10;8.02;;;0.90;99.90;;;;;;4915655;29;20032;-79
2022/02/06 03:43:46;;;;;;;24.90;12.18;;;0.90;99.90;;;;;;4920716;29;20036;-81
2022/02/06 03:46:21;;;;;;;31.52;14.25;;;0.90;99.90;;;;;;4920788;29;20032;-81
2022/02/06 03:48:52;;;;;;;55.30;21.92;;;0.90;99.90;;;;;;4920174;29;20028;-81
2022/02/06 03:51:21;;;;;;;78.68;28.23;;;0.90;99.90;;;;;;4903284;29;20035;-80
2022/02/06 03:53:50;;;;;;;79.55;27.40;;;0.90;99.90;;;;;;4920155;29;20115;-80
2022/02/06 03:56:16;;;;;;;64.65;24.38;;;1.00;99.90;;;;;;4920255;29;20040;-80
2022/02/06 03:58:42;;;;;;;60.45;23.23;;;1.00;99.90;;;;;;4920211;29;20111;-80
2022/02/06 04:01:08;;;;;;;45.30;18.92;;;1.00;99.90;;;;;;4905981;29;20066;-80
2022/02/06 04:03:33;;;;;;;41.13;17.00;;;1.00;99.90;;;;;;4911707;29;20028;-79
2022/02/06 04:05:59;;;;;;;48.58;20.83;;;1.00;99.90;;;;;;4922348;29;20382;-79
2022/02/06 04:08:27;;;;;;;54.15;22.17;;;1.10;99.90;;;;;;4884204;29;20049;-80
2022/02/06 04:10:53;;;;;;;42.92;18.60;;;1.10;99.90;;;;;;4884254;29;20120;-80
2022/02/06 04:13:23;;;;;;;37.40;15.98;;;1.10;99.90;;;;;;4884205;29;20120;-80
2022/02/06 04:15:56;;;;;;;28.80;13.35;;;1.10;99.90;;;;;;4884587;29;20471;-80
2022/02/06 04:18:30;;;;;;;24.20;11.07;;;1.10;99.90;;;;;;4900672;29;20491;-80
2022/02/06 04:20:59;;;;;;;18.85;8.40;;;1.10;99.90;;;;;;4883867;29;20033;-80
2022/02/06 04:23:25;;;;;;;12.90;6.75;;;1.10;99.90;;;;;;4883924;29;20152;-80
2022/02/06 04:25:50;;;;;;;13.32;6.57;;;1.10;99.90;;;;;;4883686;29;20072;-79
2022/02/06 04:28:17;;;;;;;11.48;6.75;;;1.10;99.90;;;;;;4883624;29;20115;-81
2022/02/06 04:30:42;;;;;;;14.65;8.48;;;1.10;99.90;;;;;;4883968;29;20035;-80
2022/02/06 04:33:08;;;;;;;15.48;7.78;;;1.10;99.90;;;;;;4883778;29;20107;-80
2022/02/06 04:35:37;;;;;;;15.60;8.40;;;1.10;99.90;;;;;;4883447;29;20515;-81
2022/02/06 04:54:37;;;;;;;15.35;5.15;;;1.10;99.90;;;;;;4900407;29;20055;-81
2022/02/06 05:26:40;;;;;;;11.35;6.82;;;1.00;99.90;;;;;;4900086;29;20037;-80
2022/02/06 05:29:27;;;;;;;12.40;6.38;;;1.00;99.90;;;;;;4883024;29;20032;-80
2022/02/06 05:34:18;;;;;;;10.70;5.55;;;1.00;99.90;;;;;;4899531;29;20029;-81
2022/02/06 05:36:44;;;;;;;8.45;4.90;;;1.10;99.90;;;;;;4899117;29;20040;-80
2022/02/06 05:39:10;;;;;;;10.93;5.35;;;1.10;99.90;;;;;;4883057;29;20039;-81
2022/02/06 05:41:36;;;;;;;7.07;4.63;;;1.10;99.90;;;;;;4882968;29;20096;-80
2022/02/06 05:44:03;;;;;;;10.90;4.85;;;1.10;99.90;;;;;;4882405;29;20039;-81
2022/02/06 05:46:29;;;;;;;8.73;5.38;;;1.10;99.90;;;;;;4884284;29;20040;-81
2022/02/06 05:48:54;;;;;;;9.35;4.63;;;1.10;99.90;;;;;;4882169;29;20028;-81
2022/02/06 05:51:20;;;;;;;8.70;4.57;;;1.20;99.90;;;;;;4882404;29;20442;-81
2022/02/06 05:53:46;;;;;;;9.05;4.70;;;1.20;99.90;;;;;;4882798;29;20092;-81
2022/02/06 05:56:15;;;;;;;9.07;4.70;;;1.20;99.90;;;;;;4899029;29;20120;-80
2022/02/06 05:58:40;;;;;;;9.75;5.25;;;1.20;99.90;;;;;;4883269;29;20029;-81
2022/02/06 06:01:06;;;;;;;9.85;5.15;;;1.30;99.90;;;;;;4882429;29;20035;-81
2022/02/06 06:03:32;;;;;;;9.35;4.95;;;1.30;99.90;;;;;;4883459;29;20033;-81
2022/02/06 06:05:57;;;;;;;7.30;4.72;;;1.30;99.90;;;;;;4888507;29;20036;-80
2022/02/06 06:08:23;;;;;;;9.02;4.47;;;1.30;99.90;;;;;;4919631;29;20403;-81
2022/02/06 06:10:49;;;;;;;9.65;5.40;;;1.30;99.90;;;;;;4918793;29;20379;-81
2022/02/06 06:13:16;;;;;;;8.70;4.93;;;1.40;99.90;;;;;;4901015;29;20032;-81
2022/02/06 06:15:42;;;;;;;7.80;5.03;;;1.40;99.90;;;;;;4900909;29;20387;-81
2022/02/06 06:18:12;;;;;;;8.60;5.03;;;1.40;99.90;;;;;;4917528;29;20032;-81
2022/02/06 06:20:38;;;;;;;8.25;5.05;;;1.40;99.90;;;;;;4900666;29;20103;-80
2022/02/06 06:23:04;;;;;;;11.75;5.63;;;1.40;99.90;;;;;;4900836;29;20484;-81
2022/02/06 06:25:39;;;;;;;9.98;5.57;;;1.40;99.90;;;;;;4917693;29;20063;-83
2022/02/06 06:28:13;;;;;;;10.65;5.18;;;1.50;99.90;;;;;;4900935;29;20042;-88
2022/02/06 06:30:42;;;;;;;7.75;5.13;;;1.60;99.90;;;;;;4898181;29;20032;-89
2022/02/06 06:33:08;;;;;;;11.02;5.30;;;1.70;99.90;;;;;;4884398;29;20127;-88
2022/02/06 06:35:37;;;;;;;8.20;4.28;;;1.80;99.90;;;;;;4881845;29;20115;-89
2022/02/06 06:38:03;;;;;;;7.22;4.30;;;1.90;99.90;;;;;;4882042;29;20044;-87
2022/02/06 06:40:30;;;;;;;8.82;4.95;;;2.00;99.90;;;;;;4881911;29;20033;-85
2022/02/06 06:42:57;;;;;;;9.32;5.28;;;2.10;99.90;;;;;;4899971;29;20051;-88
2022/02/06 06:45:23;;;;;;;9.30;5.32;;;2.10;99.90;;;;;;4883488;29;20113;-87
2022/02/06 06:47:57;;;;;;;8.18;4.53;;;2.10;99.90;;;;;;4887351;29;20029;-88
2022/02/06 06:50:32;;;;;;;10.15;4.70;;;2.10;99.90;;;;;;4882026;29;20036;-87
2022/02/06 06:53:08;;;;;;;9.13;4.97;;;2.20;99.90;;;;;;4898682;29;20450;-87
2022/02/06 06:55:37;;;;;;;10.75;5.18;;;2.20;99.90;;;;;;4883354;29;20120;-87
2022/02/06 07:01:10;;;;;;;10.93;6.70;;;2.30;99.90;;;;;;4909893;29;20068;-87
2022/02/06 07:03:36;;;;;;;13.45;7.93;;;2.30;99.90;;;;;;4899117;29;20088;-88
2022/02/06 07:06:02;;;;;;;16.75;8.55;;;2.40;99.90;;;;;;4896522;29;20498;-85
2022/02/06 07:08:28;;;;;;;15.70;8.18;;;2.50;99.60;;;;;;4886457;29;20121;-83
2022/02/06 07:10:54;;;;;;;14.90;7.35;;;2.50;99.90;;;;;;4865206;29;20041;-83
2022/02/06 07:13:23;;;;;;;14.77;8.20;;;2.60;99.50;;;;;;4879891;29;20041;-84
2022/02/06 07:15:50;;;;;;;12.88;7.63;;;2.70;99.30;;;;;;4862951;29;20033;-83
2022/02/06 07:18:16;;;;;;;18.77;10.20;;;2.80;99.10;;;;;;4863826;29;20130;-86
2022/02/06 07:20:42;;;;;;;18.33;9.82;;;2.90;97.60;;;;;;4883202;29;20556;-84
2022/02/06 07:23:14;;;;;;;17.67;9.25;;;3.00;96.70;;;;;;4867407;29;20033;-84
2022/02/06 07:25:47;;;;;;;18.85;8.90;;;3.00;96.20;;;;;;4873165;29;20037;-84
2022/02/06 07:28:22;;;;;;;14.93;7.90;;;3.00;96.10;;;;;;4869726;29;20033;-82
2022/02/06 07:30:52;;;;;;;14.10;7.32;;;3.00;96.30;;;;;;4876746;29;20067;-84
2022/02/06 07:33:20;;;;;;;13.43;7.13;;;3.10;96.20;;;;;;4866675;29;20065;-83
2022/02/06 07:35:49;;;;;;;13.65;6.65;;;3.10;96.50;;;;;;4882439;29;20383;-84
2022/02/06 07:38:20;;;;;;;10.63;6.65;;;3.20;95.50;;;;;;4835758;29;20365;-84
2022/02/06 07:40:46;;;;;;;11.00;6.15;;;3.20;95.60;;;;;;4881763;29;20037;-83
2022/02/06 07:43:13;;;;;;;15.10;6.20;;;3.20;95.60;;;;;;4865396;29;20041;-82
2022/02/06 07:45:40;;;;;;;9.88;5.75;;;3.20;94.60;;;;;;4882329;29;20386;-83
2022/02/06 07:48:21;;;;;;;10.13;5.45;;;3.30;94.50;;;;;;4865645;29;20044;-79
2022/02/06 07:50:47;;;;;;;9.93;5.30;;;3.30;95.00;;;;;;4865432;29;20029;-82
2022/02/06 07:53:18;;;;;;;10.20;5.80;;;3.30;95.10;;;;;;4882674;29;20032;-83
2022/02/06 07:55:55;;;;;;;10.60;5.80;;;3.40;94.80;;;;;;4872637;29;20169;-82
2022/02/06 07:58:24;;;;;;;8.63;5.13;;;3.50;94.50;;;;;;4876660;29;20049;-81
2022/02/06 08:00:53;;;;;;;10.10;5.72;;;3.50;94.70;;;;;;4889018;29;20186;-84
2022/02/06 08:03:19;;;;;;;10.25;5.55;;;3.70;94.50;;;;;;4873870;29;20111;-81
2022/02/06 08:05:45;;;;;;;8.43;4.80;;;3.70;94.30;;;;;;4880965;29;20025;-86
2022/02/06 08:08:14;;;;;;;9.32;4.43;;;3.80;94.00;;;;;;4881742;29;20060;-84
2022/02/06 08:10:41;;;;;;;8.27;5.07;;;3.90;94.30;;;;;;4847332;29;20041;-88
2022/02/06 08:13:20;;;;;;;11.23;5.50;;;4.00;93.90;;;;;;4866358;29;20025;-87
2022/02/06 08:15:46;;;;;;;10.75;6.22;;;4.20;93.00;;;;;;4883007;29;20036;-85
2022/02/06 08:18:12;;;;;;;8.40;5.80;;;4.30;92.40;;;;;;4881204;29;20396;-88
2022/02/06 08:20:40;;;;;;;9.93;5.57;;;4.40;91.20;;;;;;4880487;29;20125;-88
2022/02/06 08:23:09;;;;;;;9.05;5.43;;;4.50;91.10;;;;;;4883668;29;20025;-88
2022/02/06 08:25:35;;;;;;;10.13;5.55;;;4.50;91.30;;;;;;4882121;29;20168;-89
2022/02/06 08:28:01;;;;;;;9.98;5.63;;;4.70;91.20;;;;;;4850615;29;20069;-87
2022/02/06 08:30:29;;;;;;;7.82;4.63;;;4.70;91.30;;;;;;4870899;29;20545;-89
2022/02/06 08:33:08;;;;;;;9.35;5.00;;;4.80;90.60;;;;;;4900429;29;20364;-93
2022/02/06 08:35:37;;;;;;;7.65;4.30;;;4.90;90.20;;;;;;4870106;29;20032;-89
2022/02/06 08:38:06;;;;;;;10.55;5.47;;;5.00;90.00;;;;;;4883623;29;20392;-90
2022/02/06 08:40:34;;;;;;;10.55;5.30;;;5.10;88.70;;;;;;4899599;29;20547;-87
2022/02/06 08:43:00;;;;;;;8.02;5.10;;;5.10;87.00;;;;;;4874307;29;20108;-89
2022/02/06 08:45:35;;;;;;;8.40;4.75;;;5.20;86.80;;;;;;4901819;29;20060;-89
2022/02/06 08:48:01;;;;;;;8.73;5.57;;;5.20;86.70;;;;;;4881960;29;20033;-89
2022/02/06 08:50:30;;;;;;;20.80;9.65;;;5.20;86.90;;;;;;4868479;29;20036;-86
2022/02/06 08:53:22;;;;;;;18.55;9.60;;;5.30;87.50;;;;;;4864302;29;20033;-87
2022/02/06 08:55:49;;;;;;;17.85;8.48;;;5.30;84.20;;;;;;4877166;29;20056;-88
2022/02/06 08:58:15;;;;;;;14.77;7.68;;;5.40;84.00;;;;;;4883103;29;20036;-87
2022/02/06 09:00:41;;;;;;;17.15;8.02;;;5.50;83.80;;;;;;4881165;29;20040;-86
2022/02/06 09:03:08;;;;;;;19.05;8.77;;;5.50;82.70;;;;;;4887614;29;20028;-84
2022/02/06 09:05:35;;;;;;;14.75;8.35;;;5.50;82.60;;;;;;4889944;29;20127;-84
2022/02/06 09:08:05;;;;;;;13.15;8.10;;;5.50;82.10;;;;;;4886706;29;20039;-84
2022/02/06 09:10:31;;;;;;;13.82;8.05;;;5.50;82.90;;;;;;4875425;29;20067;-87
2022/02/06 09:13:07;;;;;;;15.20;8.73;;;5.60;83.10;;;;;;4888296;29;20063;-91
2022/02/06 09:15:34;;;;;;;13.80;8.93;;;5.80;82.70;;;;;;4890321;29;20032;-91
2022/02/06 09:18:00;;;;;;;12.23;7.78;;;5.80;81.80;;;;;;4887314;29;20079;-92
2022/02/06 09:20:26;;;;;;;10.43;7.13;;;5.90;80.80;;;;;;4890792;29;20055;-92
2022/02/06 09:23:02;;;;;;;10.27;6.53;;;5.90;79.40;;;;;;4889894;29;20032;-90
2022/02/06 09:25:28;;;;;;;12.10;6.55;;;6.00;78.00;;;;;;4891338;29;20075;-91
2022/02/06 09:27:57;;;;;;;11.20;6.35;;;5.90;78.90;;;;;;4905272;29;20032;-89
2022/02/06 09:30:27;;;;;;;11.00;5.78;;;5.90;77.90;;;;;;4907108;29;20478;-90
2022/02/06 09:35:19;;;;;;;11.25;6.53;;;6.00;77.50;;;;;;4908411;29;20112;-92
2022/02/06 09:37:45;;;;;;;11.80;6.63;;;6.00;77.40;;;;;;4893324;29;20099;-92
2022/02/06 09:40:15;;;;;;;9.77;6.53;;;6.00;77.20;;;;;;4892691;29;20419;-92
2022/02/06 09:42:48;;;;;;;12.27;6.68;;;6.00;76.80;;;;;;4890087;29;20020;-89
2022/02/06 09:45:28;;;;;;;10.88;5.68;;;6.00;76.20;;;;;;4898812;29;20596;-90
2022/02/06 09:47:57;;;;;;;10.55;5.95;;;5.90;76.10;;;;;;4891071;29;20040;-89
2022/02/06 09:50:22;;;;;;;11.13;6.40;;;5.80;75.60;;;;;;4910393;29;20520;-91
2022/02/06 09:52:50;;;;;;;10.10;5.95;;;5.80;75.00;;;;;;4903593;29;20028;-93
2022/02/06 09:55:19;;;;;;;92.18;47.65;;;5.70;75.00;;;;;;5016257;23;20019;-89
2022/02/06 09:57:56;;;;;;;302.02;151.32;;;5.70;75.60;;;;;;5256738;23;20230;-86
2022/02/06 10:00:26;;;;;;;81.82;45.95;;;5.70;75.10;;;;;;4900165;29;20039;-90
2022/02/06 10:03:01;;;;;;;28.88;16.48;;;5.70;74.70;;;;;;4897214;29;20040;-81
2022/02/06 10:05:36;;;;;;;16.45;8.98;;;5.70;73.90;;;;;;4865893;29;20044;-81
2022/02/06 10:08:38;;;;;;;12.85;6.93;;;5.60;73.70;;;;;;4880644;29;20040;-82
2022/02/06 10:11:16;;;;;;;13.57;6.50;;;5.60;74.10;;;;;;4877921;29;20033;-82
2022/02/06 10:14:00;;;;;;;12.43;6.18;;;5.60;74.50;;;;;;4878155;29;20070;-82
2022/02/06 10:16:26;;;;;;;13.70;6.40;;;5.70;74.20;;;;;;4885900;29;20483;-82
2022/02/06 10:19:08;;;;;;;13.32;6.75;;;5.70;74.20;;;;;;4897897;29;20043;-84
2022/02/06 10:21:35;;;;;;;11.48;5.63;;;5.70;74.50;;;;;;4876914;29;20116;-84
2022/02/06 10:24:12;;;;;;;9.27;5.30;;;5.70;74.00;;;;;;4896126;29;20088;-83
2022/02/06 10:26:41;;;;;;;11.20;5.90;;;5.70;74.70;;;;;;4880285;29;20036;-85
2022/02/06 10:32:03;;;;;;;18.42;10.63;;;5.80;73.70;;;;;;4891528;29;20507;-87
2022/02/06 10:34:33;;;;;;;14.35;7.68;;;5.80;73.30;;;;;;4873175;29;20040;-83
2022/02/06 10:37:23;;;;;;;10.98;5.93;;;5.70;73.00;;;;;;4893576;29;20115;-82
2022/02/06 10:40:10;;;;;;;8.50;4.60;;;5.60;72.90;;;;;;4895932;29;20033;-87
2022/02/06 10:42:54;;;;;;;9.85;5.00;;;5.50;73.20;;;;;;4864249;29;20024;-82
2022/02/06 10:45:28;;;;;;;10.15;5.20;;;5.40;73.00;;;;;;4884709;29;20029;-87
2022/02/06 10:47:58;;;;;;;8.88;5.05;;;5.30;72.90;;;;;;4871971;29;20124;-82
2022/02/06 10:50:26;;;;;;;47.10;23.73;;;5.30;73.20;;;;;;4895952;29;20403;-82
2022/02/06 10:53:05;;;;;;;22.25;12.25;;;5.20;73.30;;;;;;4891734;29;20033;-82
2022/02/06 10:55:30;;;;;;;14.32;7.00;;;5.20;73.50;;;;;;4886491;29;20037;-83
2022/02/06 10:57:59;;;;;;;10.82;5.40;;;5.20;73.30;;;;;;4889797;29;20053;-83
2022/02/06 11:00:31;;;;;;;9.75;5.28;;;5.10;73.20;;;;;;4879111;29;20060;-82
2022/02/06 11:03:03;;;;;;;10.50;5.05;;;5.10;73.40;;;;;;4886069;29;20032;-83
2022/02/06 11:05:55;;;;;;;10.13;4.95;;;5.20;73.90;;;;;;4865131;29;20253;-83
2022/02/06 11:08:29;;;;;;;9.40;4.97;;;5.20;73.60;;;;;;4871898;29;20029;-83
2022/02/06 11:11:06;;;;;;;9.32;5.05;;;5.30;73.50;;;;;;4890756;29;20033;-83
2022/02/06 11:13:32;;;;;;;10.45;5.10;;;5.30;73.00;;;;;;4875423;29;20060;-82
2022/02/06 11:16:02;;;;;;;9.55;5.35;;;5.20;73.20;;;;;;4863273;29;20437;-83
2022/02/06 11:18:34;;;;;;;10.18;5.10;;;5.20;73.40;;;;;;4862148;29;20111;-83
2022/02/06 11:21:10;;;;;;;7.20;4.38;;;5.20;73.40;;;;;;4862318;29;20476;-82
2022/02/06 11:23:38;;;;;;;8.93;4.50;;;5.20;73.50;;;;;;4862998;29;20080;-82
2022/02/06 11:26:06;;;;;;;7.05;3.80;;;5.30;73.30;;;;;;4880082;29;20116;-81
2022/02/06 11:28:32;;;;;;;9.02;4.43;;;5.30;73.50;;;;;;4863642;29;20033;-83
2022/02/06 11:30:58;;;;;;;9.02;4.20;;;5.30;72.50;;;;;;4882286;29;20048;-84
2022/02/06 11:33:25;;;;;;;6.70;4.35;;;5.30;72.20;;;;;;4882631;29;20555;-84
2022/02/06 11:35:59;;;;;;;9.30;4.07;;;5.30;72.00;;;;;;4866134;29;20056;-84
2022/02/06 11:45:04;;;;;;;7.82;4.00;;;5.30;71.40;;;;;;4882402;29;20556;-84
2022/02/06 11:47:42;;;;;;;7.65;3.88;;;5.30;71.50;;;;;;4881345;29;20248;-84
2022/02/06 11:50:11;;;;;;;6.95;3.42;;;5.30;71.40;;;;;;4865753;29;20077;-84
2022/02/06 11:52:49;;;;;;;7.70;3.72;;;5.30;71.20;;;;;;4882291;29;20025;-83
2022/02/06 11:55:48;;;;;;;7.28;3.65;;;5.30;68.70;;;;;;4882522;29;20030;-84
2022/02/06 11:58:25;;;;;;;6.00;3.28;;;5.30;69.90;;;;;;4842363;29;20090;-84
2022/02/06 12:01:06;;;;;;;7.80;3.63;;;5.30;70.30;;;;;;4882862;29;20033;-83
2022/02/06 12:03:54;;;;;;;6.68;3.20;;;5.40;69.50;;;;;;4882284;29;20144;-85
2022/02/06 12:06:21;;;;;;;6.07;3.22;;;5.50;69.30;;;;;;4882496;29;20033;-85
2022/02/06 12:08:59;;;;;;;4.82;2.78;;;5.50;69.50;;;;;;4866263;29;20029;-84
2022/02/06 12:12:06;;;;;;;5.13;2.80;;;5.60;68.70;;;;;;4880937;29;20043;-85
2022/02/06 12:14:38;;;;;;;6.60;3.90;;;5.70;68.50;;;;;;4880353;29;20026;-83
2022/02/06 12:17:44;;;;;;;5.63;3.25;;;5.70;68.50;;;;;;4881992;29;20092;-83
2022/02/06 12:20:16;;;;;;;6.80;3.97;;;5.80;67.80;;;;;;4881184;29;20472;-83
2022/02/06 12:22:46;;;;;;;6.25;3.40;;;5.80;66.80;;;;;;4881179;29;20033;-83
2022/02/06 12:25:35;;;;;;;4.95;2.88;;;5.90;66.90;;;;;;4865681;29;20036;-83
2022/02/06 12:28:16;;;;;;;6.50;3.60;;;6.00;66.60;;;;;;4864666;29;20503;-83
2022/02/06 12:30:42;;;;;;;6.80;3.47;;;6.10;66.50;;;;;;4881699;29;20025;-84
2022/02/06 12:33:21;;;;;;;5.28;2.70;;;6.20;66.40;;;;;;4864431;29;20055;-83
2022/02/06 12:38:31;;;;;;;4.32;2.30;;;6.60;66.60;;;;;;4881271;29;20128;-84
2022/02/06 12:40:57;;;;;;;5.30;2.65;;;7.00;66.80;;;;;;4881512;29;20050;-84
2022/02/06 12:43:28;;;;;;;4.60;2.35;;;7.30;66.20;;;;;;4864487;29;20480;-83
2022/02/06 12:45:56;;;;;;;4.45;2.58;;;7.80;67.10;;;;;;4865419;29;20029;-83
2022/02/06 12:48:21;;;;;;;4.22;2.42;;;8.70;67.10;;;;;;4881472;29;20051;-83
2022/02/06 12:50:54;;;;;;;4.55;2.10;;;9.90;64.00;;;;;;4881142;29;20504;-83
2022/02/06 12:53:20;;;;;;;6.30;2.60;;;11.00;62.10;;;;;;4864831;29;20079;-84
2022/02/06 12:55:48;;;;;;;4.38;2.42;;;11.90;59.60;;;;;;4865557;29;20480;-83
2022/02/06 12:58:17;;;;;;;4.35;2.20;;;12.70;57.90;;;;;;4884538;29;20059;-83
2022/02/06 13:00:49;;;;;;;4.22;2.30;;;13.40;55.00;;;;;;4866547;29;20033;-82
2022/02/06 13:03:40;;;;;;;4.35;2.38;;;13.70;52.80;;;;;;4864361;29;20057;-83
2022/02/06 13:06:13;;;;;;;;;;;14.10;49.90;;;;;;4881562;29;20029;-83
2022/02/06 13:08:43;;;;;;;4.05;2.13;;;14.00;49.20;;;;;;4880995;29;19908;-82
2022/02/06 13:11:17;;;;;;;4.33;2.10;;;14.10;48.60;;;;;;4864224;29;20029;-83
2022/02/06 13:22:27;;;;;;;4.13;2.20;;;13.90;46.90;;;;;;4880884;29;20052;-83
2022/02/06 13:30:09;;;;;;;3.22;1.60;;;12.80;45.70;;;;;;4880758;29;20029;-83
2022/02/06 13:38:06;;;;;;;4.50;2.10;;;11.40;46.10;;;;;;4880225;29;20041;-83
2022/02/06 13:40:33;;;;;;;5.20;2.10;;;10.60;47.10;;;;;;4864072;29;20033;-83
2022/02/06 13:43:08;;;;;;;5.03;2.03;;;9.90;48.00;;;;;;4863809;29;20088;-84
2022/02/06 13:45:36;;;;;;;3.53;1.90;;;9.40;49.00;;;;;;4863845;29;20058;-83
2022/02/06 13:48:03;;;;;;;4.15;2.40;;;8.90;50.00;;;;;;4863389;29;20471;-83
2022/02/06 13:50:30;;;;;;;5.45;2.30;;;8.50;50.50;;;;;;4879594;29;20387;-84
2022/02/06 13:53:17;;;;;;;8.07;3.10;;;8.10;50.80;;;;;;4865145;29;20119;-84
2022/02/06 13:55:54;;;;;;;4.45;2.30;;;7.60;51.50;;;;;;4865123;29;20029;-82
2022/02/06 13:58:33;;;;;;;5.07;2.35;;;7.20;52.30;;;;;;4880428;29;20091;-83
2022/02/06 14:01:03;;;;;;;4.47;2.20;;;6.70;53.00;;;;;;4863901;29;20532;-84
2022/02/06 14:03:46;;;;;;;4.68;2.30;;;6.40;53.70;;;;;;4863625;29;20535;-82
2022/02/06 14:06:14;;;;;;;5.55;2.22;;;6.00;54.60;;;;;;4879974;29;20088;-83
2022/02/06 14:09:25;;;;;;;4.40;2.30;;;5.70;55.30;;;;;;4880059;29;20044;-83
2022/02/06 14:12:20;;;;;;;4.47;2.13;;;5.50;56.20;;;;;;4880585;29;20108;-82
2022/02/06 14:14:57;;;;;;;6.38;2.28;;;5.20;56.90;;;;;;4876628;29;20429;-84
2022/02/06 14:17:35;;;;;;;4.13;2.40;;;5.00;57.30;;;;;;4880182;29;20033;-83
2022/02/06 14:20:25;;;;;;;5.15;2.50;;;4.90;58.00;;;;;;4876298;29;20036;-86
2022/02/06 14:22:57;;;;;;;7.15;2.92;;;4.70;58.50;;;;;;4887459;29;20123;-86
2022/02/06 14:25:30;;;;;;;5.00;2.80;;;4.60;59.20;;;;;;4885150;29;20035;-85
2022/02/06 14:27:57;;;;;;;6.10;2.95;;;4.50;59.80;;;;;;4890750;29;20487;-90
2022/02/06 14:30:34;;;;;;;5.22;2.70;;;4.50;60.20;;;;;;4905969;29;20025;-86
2022/02/06 14:33:12;;;;;;;6.90;3.25;;;4.50;60.50;;;;;;4898992;29;20029;-85
2022/02/06 14:35:56;;;;;;;5.97;2.85;;;4.40;60.80;;;;;;4901841;29;20036;-90
2022/02/06 14:38:36;;;;;;;8.73;3.30;;;4.40;61.10;;;;;;4909861;29;20064;-85
2022/02/06 14:41:45;;;;;;;7.47;3.50;;;4.30;61.40;;;;;;4876702;29;20349;-87
2022/02/06 14:44:15;;;;;;;8.18;3.60;;;4.30;63.20;;;;;;4886899;29;20029;-86
2022/02/06 14:46:41;;;;;;;7.35;3.72;;;4.30;63.80;;;;;;4894649;29;20028;-86
2022/02/06 14:49:09;;;;;;;6.10;3.17;;;4.20;64.10;;;;;;4894197;29;20547;-83
2022/02/06 14:51:37;;;;;;;6.43;3.63;;;4.20;64.50;;;;;;4896202;29;20467;-83
2022/02/06 14:54:05;;;;;;;8.02;3.88;;;4.10;64.80;;;;;;4883359;29;20039;-83
2022/02/06 14:56:33;;;;;;;7.78;3.40;;;4.10;65.10;;;;;;4891594;29;20489;-84
2022/02/06 14:59:00;;;;;;;5.82;3.63;;;4.00;65.40;;;;;;4882475;29;20562;-84
2022/02/06 15:01:27;;;;;;;9.02;2.90;;;3.90;65.70;;;;;;4890890;29;20509;-84
2022/02/06 15:03:52;;;;;;;8.85;3.10;;;3.90;65.90;;;;;;4891072;29;20025;-82
2022/02/06 15:06:18;;;;;;;8.13;3.28;;;3.90;66.40;;;;;;4891233;29;20528;-82
2022/02/06 15:08:44;;;;;;;6.75;3.20;;;3.80;66.70;;;;;;4890958;29;20048;-81
2022/02/06 15:11:10;;;;;;;7.22;2.83;;;3.80;67.80;;;;;;4889177;29;20119;-82
2022/02/06 15:13:36;;;;;;;15.50;8.48;;;3.70;67.40;;;;;;4875300;29;20032;-87
2022/02/06 15:16:16;;;;;;;12.45;5.53;;;3.70;68.20;;;;;;4881166;29;20060;-83
2022/02/06 15:22:03;;;;;;;9.45;3.58;;;3.70;68.60;;;;;;4829941;29;20277;-84
2022/02/06 15:24:33;;;;;;;6.17;3.27;;;3.60;68.60;;;;;;4820190;29;20045;-84
2022/02/06 15:27:22;;;;;;;9.15;3.40;;;3.60;68.80;;;;;;4841680;29;20044;-85
2022/02/06 15:29:56;;;;;;;9.07;3.70;;;3.50;69.50;;;;;;4896218;29;20041;-84
2022/02/06 15:32:41;;;;;;;7.30;3.75;;;3.40;69.70;;;;;;4871571;29;20052;-85
2022/02/06 15:35:20;;;;;;;6.10;3.28;;;3.40;69.60;;;;;;4879639;29;20028;-85
2022/02/06 15:38:09;;;;;;;11.13;4.10;;;3.30;69.90;;;;;;4871860;29;20041;-83
2022/02/06 15:40:40;;;;;;;8.60;3.58;;;3.20;70.70;;;;;;4874312;29;20487;-83